Detall de PIREP

Printer-friendly versionPDF version

[2011/05/15 12:11:00]
Flight IATA:CT3113
Pilot Number:026
Company ICAO:CAT
Aircraft Type:DC85/A
PAX:132
Departing Airport: LFMP
Destination Airport: LEBL
Alternate Airport:LEGE
Online: VATSIM
Route:BGR
Flight Level:F170
No Slew and time accel
No pause
Crash detect
Detect pilot in Cockpit between each 30 and 45 minutes
12:11 Zero fuel Weight: 179417 Lbs, Fuel Weight: 15000 Lbs
12:11 VATSIM:LFMP 151200Z 31020G32KT 9999 FEW040 20/05 Q1024 NOSIG
12:11 VATSIM:LEBL 151200Z 20012KT 9999 FEW020 19/10 Q1022 NOSIG
12:11 VOICE CATALONIAN / INTERHUB ROUTE CT3113
12:14 Parking Brakes off
12:20 Take-off
12:20 Take off Weight: 193667 Lbs
12:20 Wind: 312º @ 020 Knots Heading: 326º
12:20 POS N42º 44´ 48´´ E002º 52´ 04´´
12:20 Gear Up: 170 Knots
12:20 Flaps:2 at 170 Knots
12:21 Flaps:1 at 218 Knots
12:21 Flaps:0 at 219 Knots
12:29 TOC
12:29 Fuel Weight: 11405 Lb
12:32 TOD
12:32 Fuel Weight: 10946 Lb
12:35 Wind:194º@013 Knots Heading: 228º Ground Speed: 370 Knots Altitude 13100 ft
12:43 Gear Down: 185 Knots
12:44 Flaps:1 at 164 Knots
12:44 Flaps:2 at 136 Knots
12:45 Flaps:3 at 136 Knots
12:45 Flaps:4 at 135 Knots
12:46 Flaps:5 at 128 Knots
12:47 TouchDown:Rate -124 ft/min Speed: 113 Knots
12:48 VATSIM:LEBL 151230Z 20012KT 9999 FEW020 20/10 Q1022 NOSIG
12:48 Land
12:48 Wind:201º@012 Knots
12:48 Heading: 253º
12:48 Flight Duration: 00:28
12:48 Landing Weight: 188846 Lbs
12:48 POS N41º 18´ 02´´ E002º 05´ 20´´
12:55 Parking brakes on
12:55 Block to Block Duration: 00:41
12:55 Final Fuel: 8741 Lbls
12:55 Spent Fuel: 6258 Lbls
12:55 Flight Length: 136 NM
12:55 TOD Land Length: 66 NM

Exportar CSV

Powered by Drupal - Modified by Danger4k